sensor_id;sensor_type;location;lat;lon;timestamp;P1;durP1;ratioP1;P2;durP2;ratioP2
13816;SDS011;6979;52.116;5.286;2022-12-07T00:01:24;3.47;;;2.70;;
13816;SDS011;6979;52.116;5.286;2022-12-07T00:03:53;3.50;;;2.90;;
13816;SDS011;6979;52.116;5.286;2022-12-07T00:06:22;3.17;;;2.47;;
13816;SDS011;6979;52.116;5.286;2022-12-07T00:08:49;3.73;;;2.90;;
13816;SDS011;6979;52.116;5.286;2022-12-07T00:11:16;2.77;;;2.57;;
13816;SDS011;6979;52.116;5.286;2022-12-07T00:13:45;3.33;;;3.00;;
13816;SDS011;6979;52.116;5.286;2022-12-07T00:16:13;2.70;;;2.47;;
13816;SDS011;6979;52.116;5.286;2022-12-07T00:18:42;3.83;;;2.67;;
13816;SDS011;6979;52.116;5.286;2022-12-07T00:21:12;3.40;;;3.20;;
13816;SDS011;6979;52.116;5.286;2022-12-07T00:23:41;4.63;;;2.93;;
13816;SDS011;6979;52.116;5.286;2022-12-07T00:26:11;3.50;;;3.20;;
13816;SDS011;6979;52.116;5.286;2022-12-07T00:28:39;3.90;;;3.33;;
13816;SDS011;6979;52.116;5.286;2022-12-07T00:31:06;4.27;;;3.00;;
13816;SDS011;6979;52.116;5.286;2022-12-07T00:33:35;3.20;;;3.00;;
13816;SDS011;6979;52.116;5.286;2022-12-07T00:36:03;2.73;;;2.50;;
13816;SDS011;6979;52.116;5.286;2022-12-07T00:38:34;4.47;;;2.97;;
13816;SDS011;6979;52.116;5.286;2022-12-07T00:41:03;3.73;;;2.50;;
13816;SDS011;6979;52.116;5.286;2022-12-07T00:43:31;4.07;;;2.13;;
13816;SDS011;6979;52.116;5.286;2022-12-07T00:45:58;3.70;;;2.33;;
13816;SDS011;6979;52.116;5.286;2022-12-07T00:48:25;4.00;;;2.20;;
13816;SDS011;6979;52.116;5.286;2022-12-07T00:50:52;3.10;;;2.40;;
13816;SDS011;6979;52.116;5.286;2022-12-07T00:53:19;4.47;;;2.67;;
13816;SDS011;6979;52.116;5.286;2022-12-07T00:55:48;4.07;;;2.60;;
13816;SDS011;6979;52.116;5.286;2022-12-07T00:58:14;3.17;;;2.33;;
13816;SDS011;6979;52.116;5.286;2022-12-07T01:00:42;3.73;;;2.30;;
13816;SDS011;6979;52.116;5.286;2022-12-07T01:03:10;2.53;;;2.33;;
13816;SDS011;6979;52.116;5.286;2022-12-07T01:05:38;2.93;;;2.40;;
13816;SDS011;6979;52.116;5.286;2022-12-07T01:08:06;6.30;;;2.93;;
13816;SDS011;6979;52.116;5.286;2022-12-07T01:10:33;3.47;;;2.10;;
13816;SDS011;6979;52.116;5.286;2022-12-07T01:13:01;3.17;;;2.20;;
13816;SDS011;6979;52.116;5.286;2022-12-07T01:15:27;2.87;;;2.23;;
13816;SDS011;6979;52.116;5.286;2022-12-07T01:17:54;3.03;;;2.00;;
13816;SDS011;6979;52.116;5.286;2022-12-07T01:20:21;2.13;;;2.03;;
13816;SDS011;6979;52.116;5.286;2022-12-07T01:22:48;3.47;;;2.43;;
13816;SDS011;6979;52.116;5.286;2022-12-07T01:25:15;3.23;;;2.70;;
13816;SDS011;6979;52.116;5.286;2022-12-07T01:27:42;3.77;;;2.40;;
13816;SDS011;6979;52.116;5.286;2022-12-07T01:30:11;2.50;;;2.30;;
13816;SDS011;6979;52.116;5.286;2022-12-07T01:32:39;2.13;;;2.03;;
13816;SDS011;6979;52.116;5.286;2022-12-07T01:35:06;4.30;;;2.47;;
13816;SDS011;6979;52.116;5.286;2022-12-07T01:37:34;2.43;;;2.23;;
13816;SDS011;6979;52.116;5.286;2022-12-07T01:40:02;2.13;;;1.93;;
13816;SDS011;6979;52.116;5.286;2022-12-07T01:42:30;2.17;;;1.77;;
13816;SDS011;6979;52.116;5.286;2022-12-07T01:48:02;2.40;;;2.20;;
13816;SDS011;6979;52.116;5.286;2022-12-07T01:50:31;2.20;;;2.00;;
13816;SDS011;6979;52.116;5.286;2022-12-07T01:52:58;2.20;;;2.00;;
13816;SDS011;6979;52.116;5.286;2022-12-07T01:55:28;3.83;;;2.10;;
13816;SDS011;6979;52.116;5.286;2022-12-07T01:57:55;2.97;;;2.10;;
13816;SDS011;6979;52.116;5.286;2022-12-07T02:00:23;2.93;;;2.33;;
13816;SDS011;6979;52.116;5.286;2022-12-07T02:02:53;3.37;;;2.10;;
13816;SDS011;6979;52.116;5.286;2022-12-07T02:05:23;3.00;;;2.00;;
13816;SDS011;6979;52.116;5.286;2022-12-07T02:07:51;2.53;;;2.00;;
13816;SDS011;6979;52.116;5.286;2022-12-07T02:10:22;3.87;;;2.10;;
13816;SDS011;6979;52.116;5.286;2022-12-07T02:12:51;2.27;;;1.97;;
13816;SDS011;6979;52.116;5.286;2022-12-07T02:15:22;3.00;;;2.03;;
13816;SDS011;6979;52.116;5.286;2022-12-07T02:17:58;4.57;;;2.57;;
13816;SDS011;6979;52.116;5.286;2022-12-07T02:20:31;3.50;;;1.90;;
13816;SDS011;6979;52.116;5.286;2022-12-07T02:23:04;3.07;;;2.20;;
13816;SDS011;6979;52.116;5.286;2022-12-07T02:25:53;5.90;;;1.60;;
13816;SDS011;6979;52.116;5.286;2022-12-07T02:28:29;2.07;;;1.70;;
13816;SDS011;6979;52.116;5.286;2022-12-07T02:31:03;3.83;;;1.80;;
13816;SDS011;6979;52.116;5.286;2022-12-07T02:33:36;5.33;;;2.30;;
13816;SDS011;6979;52.116;5.286;2022-12-07T02:36:07;2.30;;;1.80;;
13816;SDS011;6979;52.116;5.286;2022-12-07T02:38:39;3.00;;;1.87;;
13816;SDS011;6979;52.116;5.286;2022-12-07T02:41:12;4.17;;;2.33;;
13816;SDS011;6979;52.116;5.286;2022-12-07T02:43:43;3.13;;;2.07;;
13816;SDS011;6979;52.116;5.286;2022-12-07T02:46:15;4.43;;;2.10;;
13816;SDS011;6979;52.116;5.286;2022-12-07T02:51:33;4.50;;;2.10;;
13816;SDS011;6979;52.116;5.286;2022-12-07T02:54:07;2.67;;;2.47;;
13816;SDS011;6979;52.116;5.286;2022-12-07T02:56:38;5.43;;;1.77;;
13816;SDS011;6979;52.116;5.286;2022-12-07T02:59:14;2.90;;;2.13;;
13816;SDS011;6979;52.116;5.286;2022-12-07T03:01:50;4.70;;;2.43;;
13816;SDS011;6979;52.116;5.286;2022-12-07T03:04:30;2.97;;;2.10;;
13816;SDS011;6979;52.116;5.286;2022-12-07T03:07:09;2.83;;;2.17;;
13816;SDS011;6979;52.116;5.286;2022-12-07T03:09:51;2.13;;;2.03;;
13816;SDS011;6979;52.116;5.286;2022-12-07T03:12:24;2.67;;;1.70;;
13816;SDS011;6979;52.116;5.286;2022-12-07T03:14:56;4.87;;;1.80;;
13816;SDS011;6979;52.116;5.286;2022-12-07T03:17:31;3.33;;;1.93;;
13816;SDS011;6979;52.116;5.286;2022-12-07T03:20:04;2.17;;;1.77;;
13816;SDS011;6979;52.116;5.286;2022-12-07T03:22:34;2.30;;;2.10;;
13816;SDS011;6979;52.116;5.286;2022-12-07T03:25:05;3.87;;;1.83;;
13816;SDS011;6979;52.116;5.286;2022-12-07T03:27:35;2.80;;;1.83;;
13816;SDS011;6979;52.116;5.286;2022-12-07T03:30:07;5.57;;;2.60;;
13816;SDS011;6979;52.116;5.286;2022-12-07T03:32:38;2.57;;;2.00;;
13816;SDS011;6979;52.116;5.286;2022-12-07T03:35:09;1.90;;;1.60;;
13816;SDS011;6979;52.116;5.286;2022-12-07T03:37:42;3.77;;;2.00;;
13816;SDS011;6979;52.116;5.286;2022-12-07T03:40:14;4.10;;;1.77;;
13816;SDS011;6979;52.116;5.286;2022-12-07T03:42:46;2.80;;;1.90;;
13816;SDS011;6979;52.116;5.286;2022-12-07T03:45:13;1.70;;;1.60;;
13816;SDS011;6979;52.116;5.286;2022-12-07T03:47:45;1.97;;;1.70;;
13816;SDS011;6979;52.116;5.286;2022-12-07T03:50:21;2.00;;;1.90;;
13816;SDS011;6979;52.116;5.286;2022-12-07T03:52:54;2.90;;;1.97;;
13816;SDS011;6979;52.116;5.286;2022-12-07T03:55:25;1.80;;;1.70;;
13816;SDS011;6979;52.116;5.286;2022-12-07T03:57:56;2.37;;;1.80;;
13816;SDS011;6979;52.116;5.286;2022-12-07T04:00:27;2.20;;;1.90;;
13816;SDS011;6979;52.116;5.286;2022-12-07T04:02:56;1.93;;;1.80;;
13816;SDS011;6979;52.116;5.286;2022-12-07T04:05:23;2.30;;;1.53;;
13816;SDS011;6979;52.116;5.286;2022-12-07T04:07:50;2.23;;;1.77;;
13816;SDS011;6979;52.116;5.286;2022-12-07T04:10:18;4.10;;;2.33;;
13816;SDS011;6979;52.116;5.286;2022-12-07T04:12:44;1.70;;;1.50;;
13816;SDS011;6979;52.116;5.286;2022-12-07T04:15:11;3.47;;;1.60;;
13816;SDS011;6979;52.116;5.286;2022-12-07T04:17:38;3.13;;;1.70;;
13816;SDS011;6979;52.116;5.286;2022-12-07T04:20:07;1.93;;;1.70;;
13816;SDS011;6979;52.116;5.286;2022-12-07T04:22:35;1.77;;;1.67;;
13816;SDS011;6979;52.116;5.286;2022-12-07T04:25:02;4.40;;;1.90;;
13816;SDS011;6979;52.116;5.286;2022-12-07T04:27:29;1.77;;;1.67;;
13816;SDS011;6979;52.116;5.286;2022-12-07T04:29:56;2.53;;;1.50;;
13816;SDS011;6979;52.116;5.286;2022-12-07T04:32:23;3.10;;;1.53;;
13816;SDS011;6979;52.116;5.286;2022-12-07T04:34:50;3.90;;;1.53;;
13816;SDS011;6979;52.116;5.286;2022-12-07T04:37:18;2.43;;;1.30;;
13816;SDS011;6979;52.116;5.286;2022-12-07T04:39:45;1.90;;;1.30;;
13816;SDS011;6979;52.116;5.286;2022-12-07T04:42:12;2.93;;;1.40;;
13816;SDS011;6979;52.116;5.286;2022-12-07T04:44:39;2.17;;;1.17;;
13816;SDS011;6979;52.116;5.286;2022-12-07T04:47:06;1.80;;;1.43;;
13816;SDS011;6979;52.116;5.286;2022-12-07T04:49:32;2.90;;;1.20;;
13816;SDS011;6979;52.116;5.286;2022-12-07T04:51:59;2.53;;;1.30;;
13816;SDS011;6979;52.116;5.286;2022-12-07T04:54:28;1.40;;;1.27;;
13816;SDS011;6979;52.116;5.286;2022-12-07T04:56:55;2.63;;;1.33;;
13816;SDS011;6979;52.116;5.286;2022-12-07T04:59:21;2.53;;;1.00;;
13816;SDS011;6979;52.116;5.286;2022-12-07T05:01:48;1.37;;;1.00;;
13816;SDS011;6979;52.116;5.286;2022-12-07T05:04:15;1.73;;;0.90;;
13816;SDS011;6979;52.116;5.286;2022-12-07T05:06:42;0.90;;;0.87;;
13816;SDS011;6979;52.116;5.286;2022-12-07T05:09:09;1.83;;;0.90;;
13816;SDS011;6979;52.116;5.286;2022-12-07T05:11:38;2.57;;;1.00;;
13816;SDS011;6979;52.116;5.286;2022-12-07T05:14:06;3.47;;;1.03;;
13816;SDS011;6979;52.116;5.286;2022-12-07T05:16:38;2.80;;;1.10;;
13816;SDS011;6979;52.116;5.286;2022-12-07T05:19:06;1.67;;;0.87;;
13816;SDS011;6979;52.116;5.286;2022-12-07T05:21:33;1.77;;;1.07;;
13816;SDS011;6979;52.116;5.286;2022-12-07T05:24:00;2.90;;;1.03;;
13816;SDS011;6979;52.116;5.286;2022-12-07T05:26:27;3.77;;;1.33;;
13816;SDS011;6979;52.116;5.286;2022-12-07T05:28:56;2.00;;;1.07;;
13816;SDS011;6979;52.116;5.286;2022-12-07T05:31:24;4.33;;;1.23;;
13816;SDS011;6979;52.116;5.286;2022-12-07T05:33:51;3.10;;;1.37;;
13816;SDS011;6979;52.116;5.286;2022-12-07T05:36:18;1.73;;;1.00;;
13816;SDS011;6979;52.116;5.286;2022-12-07T05:38:45;2.97;;;1.23;;
13816;SDS011;6979;52.116;5.286;2022-12-07T05:41:13;2.90;;;1.10;;
13816;SDS011;6979;52.116;5.286;2022-12-07T05:43:56;1.87;;;0.93;;
13816;SDS011;6979;52.116;5.286;2022-12-07T05:46:23;2.73;;;1.00;;
13816;SDS011;6979;52.116;5.286;2022-12-07T05:48:50;3.73;;;1.17;;
13816;SDS011;6979;52.116;5.286;2022-12-07T05:51:17;1.93;;;1.00;;
13816;SDS011;6979;52.116;5.286;2022-12-07T05:53:44;1.63;;;0.97;;
13816;SDS011;6979;52.116;5.286;2022-12-07T05:56:11;3.33;;;0.93;;
13816;SDS011;6979;52.116;5.286;2022-12-07T05:58:38;2.80;;;1.00;;
13816;SDS011;6979;52.116;5.286;2022-12-07T06:01:24;2.33;;;1.20;;
13816;SDS011;6979;52.116;5.286;2022-12-07T06:03:50;2.10;;;1.10;;
13816;SDS011;6979;52.116;5.286;2022-12-07T06:06:17;1.30;;;1.00;;
13816;SDS011;6979;52.116;5.286;2022-12-07T06:08:44;1.70;;;1.20;;
13816;SDS011;6979;52.116;5.286;2022-12-07T06:11:11;2.70;;;1.10;;
13816;SDS011;6979;52.116;5.286;2022-12-07T06:13:55;2.00;;;1.40;;
13816;SDS011;6979;52.116;5.286;2022-12-07T06:16:24;1.40;;;1.10;;
13816;SDS011;6979;52.116;5.286;2022-12-07T06:18:50;2.37;;;1.33;;
13816;SDS011;6979;52.116;5.286;2022-12-07T06:21:17;2.37;;;1.63;;
13816;SDS011;6979;52.116;5.286;2022-12-07T06:23:44;1.37;;;0.87;;
13816;SDS011;6979;52.116;5.286;2022-12-07T06:26:12;3.77;;;1.10;;
13816;SDS011;6979;52.116;5.286;2022-12-07T06:28:39;1.50;;;1.30;;
13816;SDS011;6979;52.116;5.286;2022-12-07T06:31:06;2.33;;;1.90;;
13816;SDS011;6979;52.116;5.286;2022-12-07T06:33:35;2.60;;;1.83;;
13816;SDS011;6979;52.116;5.286;2022-12-07T06:36:02;3.60;;;1.50;;
13816;SDS011;6979;52.116;5.286;2022-12-07T06:38:29;3.17;;;1.40;;
13816;SDS011;6979;52.116;5.286;2022-12-07T06:40:56;3.40;;;1.60;;
13816;SDS011;6979;52.116;5.286;2022-12-07T06:43:23;1.53;;;1.30;;
13816;SDS011;6979;52.116;5.286;2022-12-07T06:45:50;5.53;;;1.60;;
13816;SDS011;6979;52.116;5.286;2022-12-07T06:48:17;2.07;;;1.37;;
13816;SDS011;6979;52.116;5.286;2022-12-07T06:50:45;1.63;;;1.20;;
13816;SDS011;6979;52.116;5.286;2022-12-07T06:53:12;3.40;;;2.00;;
13816;SDS011;6979;52.116;5.286;2022-12-07T06:55:39;7.80;;;1.87;;
13816;SDS011;6979;52.116;5.286;2022-12-07T06:58:06;3.03;;;1.47;;
13816;SDS011;6979;52.116;5.286;2022-12-07T07:00:33;1.73;;;1.60;;
13816;SDS011;6979;52.116;5.286;2022-12-07T07:03:00;2.23;;;1.37;;
13816;SDS011;6979;52.116;5.286;2022-12-07T07:05:27;2.47;;;1.43;;
13816;SDS011;6979;52.116;5.286;2022-12-07T07:07:56;4.60;;;1.83;;
13816;SDS011;6979;52.116;5.286;2022-12-07T07:10:22;5.10;;;1.23;;
13816;SDS011;6979;52.116;5.286;2022-12-07T07:12:49;2.37;;;1.60;;
13816;SDS011;6979;52.116;5.286;2022-12-07T07:15:16;3.40;;;1.30;;
13816;SDS011;6979;52.116;5.286;2022-12-07T07:17:43;3.43;;;1.50;;
13816;SDS011;6979;52.116;5.286;2022-12-07T07:20:10;5.20;;;2.23;;
13816;SDS011;6979;52.116;5.286;2022-12-07T07:22:38;2.47;;;1.53;;
13816;SDS011;6979;52.116;5.286;2022-12-07T07:25:06;1.83;;;1.60;;
13816;SDS011;6979;52.116;5.286;2022-12-07T07:27:33;2.30;;;1.50;;
13816;SDS011;6979;52.116;5.286;2022-12-07T07:30:00;2.30;;;1.90;;
13816;SDS011;6979;52.116;5.286;2022-12-07T07:32:27;2.33;;;2.10;;
13816;SDS011;6979;52.116;5.286;2022-12-07T07:34:54;1.70;;;1.60;;
13816;SDS011;6979;52.116;5.286;2022-12-07T07:37:21;3.60;;;1.87;;
13816;SDS011;6979;52.116;5.286;2022-12-07T07:39:48;2.57;;;1.40;;
13816;SDS011;6979;52.116;5.286;2022-12-07T07:42:16;3.30;;;1.80;;
13816;SDS011;6979;52.116;5.286;2022-12-07T07:44:44;2.80;;;1.93;;
13816;SDS011;6979;52.116;5.286;2022-12-07T07:47:11;2.60;;;1.93;;
13816;SDS011;6979;52.116;5.286;2022-12-07T07:49:38;2.30;;;2.10;;
13816;SDS011;6979;52.116;5.286;2022-12-07T07:52:05;2.83;;;1.70;;
13816;SDS011;6979;52.116;5.286;2022-12-07T07:54:32;4.00;;;2.03;;
13816;SDS011;6979;52.116;5.286;2022-12-07T07:56:59;3.10;;;1.80;;
13816;SDS011;6979;52.116;5.286;2022-12-07T07:59:27;2.53;;;2.33;;
13816;SDS011;6979;52.116;5.286;2022-12-07T08:01:54;3.60;;;2.23;;
13816;SDS011;6979;52.116;5.286;2022-12-07T08:04:21;5.10;;;3.77;;
13816;SDS011;6979;52.116;5.286;2022-12-07T08:06:47;4.50;;;3.83;;
13816;SDS011;6979;52.116;5.286;2022-12-07T08:09:14;4.87;;;3.10;;
13816;SDS011;6979;52.116;5.286;2022-12-07T08:11:41;2.47;;;2.13;;
13816;SDS011;6979;52.116;5.286;2022-12-07T08:14:09;2.80;;;2.20;;
13816;SDS011;6979;52.116;5.286;2022-12-07T08:16:38;2.60;;;2.30;;
13816;SDS011;6979;52.116;5.286;2022-12-07T08:19:05;2.60;;;1.97;;
13816;SDS011;6979;52.116;5.286;2022-12-07T08:21:32;4.63;;;2.60;;
13816;SDS011;6979;52.116;5.286;2022-12-07T08:23:58;3.83;;;2.27;;
13816;SDS011;6979;52.116;5.286;2022-12-07T08:26:25;2.57;;;1.97;;
13816;SDS011;6979;52.116;5.286;2022-12-07T08:28:52;2.47;;;2.27;;
13816;SDS011;6979;52.116;5.286;2022-12-07T08:31:19;2.63;;;2.07;;
13816;SDS011;6979;52.116;5.286;2022-12-07T08:33:48;5.03;;;1.80;;
13816;SDS011;6979;52.116;5.286;2022-12-07T08:36:15;2.47;;;1.53;;
13816;SDS011;6979;52.116;5.286;2022-12-07T08:38:43;3.00;;;1.70;;
13816;SDS011;6979;52.116;5.286;2022-12-07T08:41:10;3.37;;;1.90;;
13816;SDS011;6979;52.116;5.286;2022-12-07T08:43:37;5.10;;;1.57;;
13816;SDS011;6979;52.116;5.286;2022-12-07T08:46:06;1.50;;;1.17;;
13816;SDS011;6979;52.116;5.286;2022-12-07T08:48:35;3.47;;;1.77;;
13816;SDS011;6979;52.116;5.286;2022-12-07T08:51:06;3.17;;;1.67;;
13816;SDS011;6979;52.116;5.286;2022-12-07T08:53:33;4.80;;;2.20;;
13816;SDS011;6979;52.116;5.286;2022-12-07T08:56:01;2.77;;;1.77;;
13816;SDS011;6979;52.116;5.286;2022-12-07T08:58:29;3.67;;;1.73;;
13816;SDS011;6979;52.116;5.286;2022-12-07T09:00:55;2.93;;;1.47;;
13816;SDS011;6979;52.116;5.286;2022-12-07T09:03:22;2.67;;;1.10;;
13816;SDS011;6979;52.116;5.286;2022-12-07T09:05:49;3.83;;;1.90;;
13816;SDS011;6979;52.116;5.286;2022-12-07T09:08:17;2.27;;;1.57;;
13816;SDS011;6979;52.116;5.286;2022-12-07T09:10:45;3.80;;;1.70;;
13816;SDS011;6979;52.116;5.286;2022-12-07T09:13:12;3.23;;;1.80;;
13816;SDS011;6979;52.116;5.286;2022-12-07T09:15:39;3.00;;;1.77;;
13816;SDS011;6979;52.116;5.286;2022-12-07T09:18:06;3.17;;;2.00;;
13816;SDS011;6979;52.116;5.286;2022-12-07T09:20:33;2.77;;;1.30;;
13816;SDS011;6979;52.116;5.286;2022-12-07T09:23:00;2.27;;;1.50;;
13816;SDS011;6979;52.116;5.286;2022-12-07T09:25:28;3.37;;;1.50;;
13816;SDS011;6979;52.116;5.286;2022-12-07T09:27:56;1.70;;;1.60;;
13816;SDS011;6979;52.116;5.286;2022-12-07T09:30:23;5.53;;;1.93;;
13816;SDS011;6979;52.116;5.286;2022-12-07T09:32:52;2.43;;;1.37;;
13816;SDS011;6979;52.116;5.286;2022-12-07T09:35:19;1.63;;;1.20;;
13816;SDS011;6979;52.116;5.286;2022-12-07T09:37:46;2.03;;;1.50;;
13816;SDS011;6979;52.116;5.286;2022-12-07T09:40:13;5.73;;;1.93;;
13816;SDS011;6979;52.116;5.286;2022-12-07T09:42:44;2.60;;;1.30;;
13816;SDS011;6979;52.116;5.286;2022-12-07T09:45:14;2.20;;;1.57;;
13816;SDS011;6979;52.116;5.286;2022-12-07T09:47:44;2.60;;;1.47;;
13816;SDS011;6979;52.116;5.286;2022-12-07T09:50:13;2.57;;;1.67;;
13816;SDS011;6979;52.116;5.286;2022-12-07T09:52:42;1.97;;;1.67;;
13816;SDS011;6979;52.116;5.286;2022-12-07T09:55:11;4.77;;;1.97;;
13816;SDS011;6979;52.116;5.286;2022-12-07T09:57:39;5.23;;;2.10;;
13816;SDS011;6979;52.116;5.286;2022-12-07T10:00:12;2.73;;;1.80;;
13816;SDS011;6979;52.116;5.286;2022-12-07T10:02:43;2.30;;;1.83;;
13816;SDS011;6979;52.116;5.286;2022-12-07T10:05:13;2.60;;;1.37;;
13816;SDS011;6979;52.116;5.286;2022-12-07T10:07:42;1.60;;;1.50;;
13816;SDS011;6979;52.116;5.286;2022-12-07T10:10:13;2.73;;;1.30;;
13816;SDS011;6979;52.116;5.286;2022-12-07T10:12:57;3.80;;;1.47;;
13816;SDS011;6979;52.116;5.286;2022-12-07T10:15:45;2.87;;;1.67;;
13816;SDS011;6979;52.116;5.286;2022-12-07T10:18:21;3.30;;;1.27;;
13816;SDS011;6979;52.116;5.286;2022-12-07T10:21:01;2.17;;;1.73;;
13816;SDS011;6979;52.116;5.286;2022-12-07T10:23:32;2.60;;;1.90;;
13816;SDS011;6979;52.116;5.286;2022-12-07T10:26:06;3.20;;;1.47;;
13816;SDS011;6979;52.116;5.286;2022-12-07T10:28:47;2.30;;;1.40;;
13816;SDS011;6979;52.116;5.286;2022-12-07T10:31:17;2.37;;;1.67;;
13816;SDS011;6979;52.116;5.286;2022-12-07T10:33:50;3.10;;;1.40;;
13816;SDS011;6979;52.116;5.286;2022-12-07T10:36:20;3.40;;;2.13;;
13816;SDS011;6979;52.116;5.286;2022-12-07T10:38:49;1.30;;;1.20;;
13816;SDS011;6979;52.116;5.286;2022-12-07T10:41:17;3.30;;;2.13;;
13816;SDS011;6979;52.116;5.286;2022-12-07T10:43:51;2.57;;;1.53;;
13816;SDS011;6979;52.116;5.286;2022-12-07T10:46:28;2.33;;;1.30;;
13816;SDS011;6979;52.116;5.286;2022-12-07T10:49:21;2.03;;;1.67;;
13816;SDS011;6979;52.116;5.286;2022-12-07T10:52:03;3.90;;;1.53;;
13816;SDS011;6979;52.116;5.286;2022-12-07T10:54:41;0.67;;;0.67;;
13816;SDS011;6979;52.116;5.286;2022-12-07T10:57:24;3.10;;;1.50;;
13816;SDS011;6979;52.116;5.286;2022-12-07T11:00:11;2.00;;;1.20;;
13816;SDS011;6979;52.116;5.286;2022-12-07T11:05:59;5.83;;;1.70;;
13816;SDS011;6979;52.116;5.286;2022-12-07T11:08:43;2.90;;;1.70;;
13816;SDS011;6979;52.116;5.286;2022-12-07T11:11:19;1.80;;;0.97;;
13816;SDS011;6979;52.116;5.286;2022-12-07T11:13:55;3.63;;;1.53;;
13816;SDS011;6979;52.116;5.286;2022-12-07T11:16:31;3.53;;;1.60;;
13816;SDS011;6979;52.116;5.286;2022-12-07T11:19:16;3.03;;;1.70;;
13816;SDS011;6979;52.116;5.286;2022-12-07T11:21:57;2.97;;;1.47;;
13816;SDS011;6979;52.116;5.286;2022-12-07T11:24:27;1.57;;;1.43;;
13816;SDS011;6979;52.116;5.286;2022-12-07T11:27:05;3.50;;;1.37;;
13816;SDS011;6979;52.116;5.286;2022-12-07T11:29:44;2.80;;;1.50;;
13816;SDS011;6979;52.116;5.286;2022-12-07T11:32:20;2.27;;;1.20;;
13816;SDS011;6979;52.116;5.286;2022-12-07T11:34:55;1.90;;;1.30;;
13816;SDS011;6979;52.116;5.286;2022-12-07T11:37:31;2.30;;;1.50;;
13816;SDS011;6979;52.116;5.286;2022-12-07T11:40:00;2.20;;;1.13;;
13816;SDS011;6979;52.116;5.286;2022-12-07T11:42:32;1.27;;;1.10;;
13816;SDS011;6979;52.116;5.286;2022-12-07T11:45:09;6.17;;;1.23;;
13816;SDS011;6979;52.116;5.286;2022-12-07T11:47:41;1.77;;;1.13;;
13816;SDS011;6979;52.116;5.286;2022-12-07T11:50:25;2.03;;;1.00;;
13816;SDS011;6979;52.116;5.286;2022-12-07T11:52:59;1.33;;;1.23;;
13816;SDS011;6979;52.116;5.286;2022-12-07T11:55:32;2.30;;;0.87;;
13816;SDS011;6979;52.116;5.286;2022-12-07T11:58:12;1.63;;;1.07;;
13816;SDS011;6979;52.116;5.286;2022-12-07T12:00:48;2.17;;;1.03;;
13816;SDS011;6979;52.116;5.286;2022-12-07T12:03:19;1.87;;;1.27;;
13816;SDS011;6979;52.116;5.286;2022-12-07T12:05:55;4.23;;;1.00;;
13816;SDS011;6979;52.116;5.286;2022-12-07T12:08:25;3.23;;;1.73;;
13816;SDS011;6979;52.116;5.286;2022-12-07T12:10:59;2.93;;;1.63;;
13816;SDS011;6979;52.116;5.286;2022-12-07T12:13:43;2.03;;;1.77;;
13816;SDS011;6979;52.116;5.286;2022-12-07T12:16:46;2.77;;;1.43;;
13816;SDS011;6979;52.116;5.286;2022-12-07T12:19:40;1.33;;;1.10;;
13816;SDS011;6979;52.116;5.286;2022-12-07T12:22:12;2.50;;;1.53;;
13816;SDS011;6979;52.116;5.286;2022-12-07T12:24:44;3.13;;;1.20;;
13816;SDS011;6979;52.116;5.286;2022-12-07T12:27:18;3.30;;;1.30;;
13816;SDS011;6979;52.116;5.286;2022-12-07T12:29:52;3.93;;;1.70;;
13816;SDS011;6979;52.116;5.286;2022-12-07T12:32:21;5.00;;;1.50;;
13816;SDS011;6979;52.116;5.286;2022-12-07T12:35:17;2.83;;;1.50;;
13816;SDS011;6979;52.116;5.286;2022-12-07T12:37:53;2.80;;;1.40;;
13816;SDS011;6979;52.116;5.286;2022-12-07T12:46:36;2.63;;;1.33;;
13816;SDS011;6979;52.116;5.286;2022-12-07T12:55:13;4.20;;;1.57;;
13816;SDS011;6979;52.116;5.286;2022-12-07T12:57:46;4.43;;;1.43;;
13816;SDS011;6979;52.116;5.286;2022-12-07T13:00:18;3.53;;;1.30;;
13816;SDS011;6979;52.116;5.286;2022-12-07T13:02:48;2.40;;;1.30;;
13816;SDS011;6979;52.116;5.286;2022-12-07T13:05:17;2.60;;;1.20;;
13816;SDS011;6979;52.116;5.286;2022-12-07T13:07:58;2.87;;;1.00;;
13816;SDS011;6979;52.116;5.286;2022-12-07T13:10:40;3.27;;;1.70;;
13816;SDS011;6979;52.116;5.286;2022-12-07T13:25:19;3.73;;;1.20;;
13816;SDS011;6979;52.116;5.286;2022-12-07T13:27:55;2.13;;;0.80;;
13816;SDS011;6979;52.116;5.286;2022-12-07T13:30:28;1.33;;;0.97;;
13816;SDS011;6979;52.116;5.286;2022-12-07T13:32:57;3.20;;;1.03;;
13816;SDS011;6979;52.116;5.286;2022-12-07T13:35:31;1.93;;;1.13;;
13816;SDS011;6979;52.116;5.286;2022-12-07T13:38:01;2.67;;;1.60;;
13816;SDS011;6979;52.116;5.286;2022-12-07T13:40:31;1.63;;;1.03;;
13816;SDS011;6979;52.116;5.286;2022-12-07T13:42:58;2.83;;;1.23;;
13816;SDS011;6979;52.116;5.286;2022-12-07T13:45:26;3.33;;;1.50;;
13816;SDS011;6979;52.116;5.286;2022-12-07T13:48:15;3.83;;;1.43;;
13816;SDS011;6979;52.116;5.286;2022-12-07T13:50:51;3.23;;;1.20;;
13816;SDS011;6979;52.116;5.286;2022-12-07T13:53:19;1.73;;;1.13;;
13816;SDS011;6979;52.116;5.286;2022-12-07T13:55:46;1.87;;;1.27;;
13816;SDS011;6979;52.116;5.286;2022-12-07T13:58:14;4.20;;;1.10;;
13816;SDS011;6979;52.116;5.286;2022-12-07T14:00:43;2.50;;;1.30;;
13816;SDS011;6979;52.116;5.286;2022-12-07T14:03:23;3.13;;;1.50;;
13816;SDS011;6979;52.116;5.286;2022-12-07T14:06:11;1.00;;;0.90;;
13816;SDS011;6979;52.116;5.286;2022-12-07T14:08:45;1.80;;;1.00;;
13816;SDS011;6979;52.116;5.286;2022-12-07T14:11:16;2.23;;;1.30;;
13816;SDS011;6979;52.116;5.286;2022-12-07T14:13:47;1.17;;;0.90;;
13816;SDS011;6979;52.116;5.286;2022-12-07T14:16:24;2.27;;;1.33;;
13816;SDS011;6979;52.116;5.286;2022-12-07T14:18:54;4.57;;;1.10;;
13816;SDS011;6979;52.116;5.286;2022-12-07T14:21:22;4.03;;;1.47;;
13816;SDS011;6979;52.116;5.286;2022-12-07T14:24:08;1.57;;;1.03;;
13816;SDS011;6979;52.116;5.286;2022-12-07T14:26:37;1.53;;;1.10;;
13816;SDS011;6979;52.116;5.286;2022-12-07T14:32:04;1.20;;;0.87;;
13816;SDS011;6979;52.116;5.286;2022-12-07T14:34:59;1.60;;;0.97;;
13816;SDS011;6979;52.116;5.286;2022-12-07T14:37:28;1.57;;;1.10;;
13816;SDS011;6979;52.116;5.286;2022-12-07T14:39:56;1.43;;;0.80;;
13816;SDS011;6979;52.116;5.286;2022-12-07T14:42:24;1.00;;;0.90;;
13816;SDS011;6979;52.116;5.286;2022-12-07T14:44:53;2.00;;;1.00;;
13816;SDS011;6979;52.116;5.286;2022-12-07T14:47:22;3.27;;;0.83;;
13816;SDS011;6979;52.116;5.286;2022-12-07T14:49:49;1.57;;;0.87;;
13816;SDS011;6979;52.116;5.286;2022-12-07T14:52:16;2.03;;;0.70;;
13816;SDS011;6979;52.116;5.286;2022-12-07T14:54:45;2.13;;;0.70;;
13816;SDS011;6979;52.116;5.286;2022-12-07T14:57:12;0.70;;;0.70;;
13816;SDS011;6979;52.116;5.286;2022-12-07T14:59:39;1.77;;;1.00;;
13816;SDS011;6979;52.116;5.286;2022-12-07T15:02:06;0.80;;;0.80;;
13816;SDS011;6979;52.116;5.286;2022-12-07T15:04:37;0.70;;;0.67;;
13816;SDS011;6979;52.116;5.286;2022-12-07T15:07:04;2.20;;;1.00;;
13816;SDS011;6979;52.116;5.286;2022-12-07T15:09:35;2.40;;;1.30;;
13816;SDS011;6979;52.116;5.286;2022-12-07T15:12:02;1.87;;;1.00;;
13816;SDS011;6979;52.116;5.286;2022-12-07T15:14:29;2.20;;;1.10;;
13816;SDS011;6979;52.116;5.286;2022-12-07T15:16:56;1.87;;;1.10;;
13816;SDS011;6979;52.116;5.286;2022-12-07T15:19:23;1.23;;;1.03;;
13816;SDS011;6979;52.116;5.286;2022-12-07T15:21:53;1.57;;;0.90;;
13816;SDS011;6979;52.116;5.286;2022-12-07T15:24:20;2.27;;;1.60;;
13816;SDS011;6979;52.116;5.286;2022-12-07T15:26:49;2.20;;;0.90;;
13816;SDS011;6979;52.116;5.286;2022-12-07T15:29:15;0.90;;;0.90;;
13816;SDS011;6979;52.116;5.286;2022-12-07T15:31:43;1.30;;;1.20;;
13816;SDS011;6979;52.116;5.286;2022-12-07T15:34:10;1.73;;;1.20;;
13816;SDS011;6979;52.116;5.286;2022-12-07T15:36:37;3.60;;;2.23;;
13816;SDS011;6979;52.116;5.286;2022-12-07T15:39:05;2.90;;;2.13;;
13816;SDS011;6979;52.116;5.286;2022-12-07T15:41:32;3.10;;;2.00;;
13816;SDS011;6979;52.116;5.286;2022-12-07T15:43:59;1.57;;;1.47;;
13816;SDS011;6979;52.116;5.286;2022-12-07T15:46:47;1.60;;;1.43;;
13816;SDS011;6979;52.116;5.286;2022-12-07T15:49:15;1.63;;;1.37;;
13816;SDS011;6979;52.116;5.286;2022-12-07T15:51:43;1.70;;;1.50;;
13816;SDS011;6979;52.116;5.286;2022-12-07T15:54:13;1.50;;;1.40;;
13816;SDS011;6979;52.116;5.286;2022-12-07T15:56:44;3.17;;;2.23;;